MSC Jordan — HPMK — position and weather

sailwx.info

Track history (hours):
 
Tides and Currents Weather Stations Pressure Air Temp Water Temp Dewpoint Dewpoint Depression Visibility Wind Speed Wind Dir Waves Ship Positions

MSC Jordan

Last reported at 2015-Jul-28 19:33 UTC. Time now 2015-Jul-28 19:47 UTC.
Position N 51°24' E 003°01'.

Length 237 m; draft 8.4 m.

Type: Ship. MMSI: 355194000.

Date/timePositionNaut miles runAvg speedWind from/ knotsBaromVisibWave heightAir tempDewpointWater temp
2015-Jul-28 19:33N 51°24' E 003°01'1312.7
2015-Jul-28 18:33N 51°22' E 002°41'5 5.3
2015-Jul-28 17:33N 51°24' E 002°33'0 0.1
2015-Jul-28 16:32N 51°24' E 002°34'0 0.1
2015-Jul-28 15:32N 51°24' E 002°34'0 0.0
2015-Jul-28 14:32N 51°24' E 002°34'0 0.1
2015-Jul-28 13:32N 51°24' E 002°34'0 0.0
2015-Jul-28 12:32N 51°24' E 002°34'0 0.0
2015-Jul-28 11:32N 51°24' E 002°34'0 0.0
2015-Jul-28 10:32N 51°24' E 002°34'0 0.4
2015-Jul-28 09:34N 51°24' E 002°34'1413.9
2015-Jul-28 08:33N 51°18' E 002°14'1717.4
2015-Jul-28 07:33N 51°09' E 001°50'1716.9
2015-Jul-28 06:33N 50°57' E 001°31'3616.1
2015-Jul-28 04:20N 50°29' E 000°58'76516.7
2015-Jul-26 06:31N 40°13' W 009°50'2119.8
2015-Jul-26 05:27N 39°52' W 009°51'2019.3
2015-Jul-26 04:24N 39°32' W 009°52'1619.0
2015-Jul-26 03:33N 39°16' W 009°53'1919.2
2015-Jul-26 02:33N 38°57' W 009°52'1918.9
2015-Jul-26 01:33N 38°38' W 009°51'1918.7
2015-Jul-26 00:33N 38°19' W 009°51'1818.4
2015-Jul-25 23:33N 38°01' W 009°52'1818.0
2015-Jul-25 22:33N 37°43' W 009°52'1818.4
2015-Jul-25 21:33N 37°24' W 009°53'1818.3
2015-Jul-25 20:33N 37°06' W 009°54'1918.5
2015-Jul-25 19:33N 36°48' W 009°54'1818.3
2015-Jul-25 18:33N 36°29' W 009°55'1918.5
2015-Jul-25 17:33N 36°11' W 009°56'1818.5
2015-Jul-25 16:33N 35°52' W 009°57'1918.5
2015-Jul-25 15:33N 35°34' W 009°57'1918.2
2015-Jul-25 14:32N 35°15' W 009°58'2018.2
2015-Jul-25 13:25N 34°55' W 009°59'1618.5
2015-Jul-25 12:33N 34°39' W 009°59'2118.5
2015-Jul-25 11:26N 34°18' W 010°01'1618.3
2015-Jul-25 10:32N 34°02' W 010°01'1919.4
2015-Jul-25 09:33N 33°43' W 010°02'19812.0
2015-Jul-24 17:03N 30°26' W 009°39'0 0.0
2015-Jul-24 12:21N 30°26' W 009°39'0 0.0
2015-Jul-24 11:09N 30°26' W 009°39'0 0.0
2015-Jul-24 10:21N 30°26' W 009°39'0 0.0
2015-Jul-24 09:21N 30°26' W 009°39'0 0.0
2015-Jul-24 08:24N 30°26' W 009°39'0 0.0
2015-Jul-24 06:27N 30°26' W 009°39'0 0.0
2015-Jul-24 04:10N 30°26' W 009°39'0 0.0
2015-Jul-24 03:25N 30°26' W 009°39'0 0.0
2015-Jul-24 01:19N 30°26' W 009°39'0 0.0
2015-Jul-24 00:26N 30°26' W 009°39'0 0.0
2015-Jul-23 21:17N 30°26' W 009°39'0 0.0
2015-Jul-23 20:32N 30°26' W 009°39'0 0.0
2015-Jul-23 19:32N 30°26' W 009°39'0 0.0
2015-Jul-23 16:32N 30°26' W 009°39'0 0.0
2015-Jul-23 14:23N 30°26' W 009°39'0 0.0
2015-Jul-23 09:26N 30°26' W 009°39'0 0.0
2015-Jul-23 07:03N 30°26' W 009°39'1 1.5
2015-Jul-23 06:26N 30°25' W 009°38'2 0.5
2015-Jul-23 01:31N 30°24' W 009°41'0 0.0
2015-Jul-22 20:19N 30°24' W 009°41'0 0.0
2015-Jul-22 19:31N 30°24' W 009°41'0 0.0
2015-Jul-22 18:19N 30°24' W 009°41'0 0.0
2015-Jul-22 17:22N 30°24' W 009°41'0 0.0
2015-Jul-22 16:25N 30°24' W 009°41'0 0.0
2015-Jul-22 15:22N 30°24' W 009°41'0 0.0
2015-Jul-22 11:31N 30°24' W 009°41'0 0.0
2015-Jul-22 07:28N 30°24' W 009°41'0 0.0
2015-Jul-22 06:04N 30°24' W 009°41'0 0.0
2015-Jul-22 05:19N 30°24' W 009°41'0 0.0
2015-Jul-22 04:19N 30°24' W 009°41'0 0.0
2015-Jul-22 02:25N 30°24' W 009°41'14 1.4
2015-Jul-21 16:22N 30°19' W 009°56'2916.2
2015-Jul-21 14:33N 30°13' W 010°30'1615.9
2015-Jul-21 13:33N 30°09' W 010°48'5115.5
2015-Jul-21 10:14N 29°60' W 011°46'1015.0
2015-Jul-21 09:33N 29°57' W 011°58'1414.5
2015-Jul-21 08:34N 29°54' W 012°14'14214.1
2015-Jul-20 22:32N 28°47' W 014°37'1515.3
2015-Jul-20 21:33N 28°36' W 014°49'1515.2
2015-Jul-20 20:33N 28°26' W 015°01'1515.0
2015-Jul-20 19:33N 28°15' W 015°14'1312.6
2015-Jul-20 18:33N 28°07' W 015°25'1 0.6
2015-Jul-20 17:32N 28°08' W 015°25'0 0.0
2015-Jul-20 16:32N 28°08' W 015°25'0 0.0
2015-Jul-20 15:32N 28°08' W 015°25'0 0.0
2015-Jul-20 14:32N 28°08' W 015°25'0 0.0
2015-Jul-20 13:23N 28°08' W 015°25'0 0.0
2015-Jul-20 12:26N 28°08' W 015°25'0 0.0
2015-Jul-20 11:23N 28°08' W 015°25'0 0.0
2015-Jul-20 10:26N 28°08' W 015°25'0 0.0
2015-Jul-20 09:26N 28°08' W 015°25'  
Track history (hours):
 
Tides and Currents Weather Stations Pressure Air Temp Water Temp Dewpoint Dewpoint Depression Visibility Wind Speed Wind Dir Waves Ship Positions

MSC Jordan

Last reported at 2015-Jul-28 19:33 UTC. Time now 2015-Jul-28 19:47 UTC.
Position N 51°24' E 003°01'.

Length 237 m; draft 8.4 m.

Type: Ship. MMSI: 355194000.

Date/timePositionNaut miles runAvg speedWind from/ knotsBaromVisibWave heightAir tempDewpointWater temp
2015-Jul-28 19:33N 51°24' E 003°01'1312.7
2015-Jul-28 18:33N 51°22' E 002°41'5 5.3
2015-Jul-28 17:33N 51°24' E 002°33'0 0.1
2015-Jul-28 16:32N 51°24' E 002°34'0 0.1
2015-Jul-28 15:32N 51°24' E 002°34'0 0.0
2015-Jul-28 14:32N 51°24' E 002°34'0 0.1
2015-Jul-28 13:32N 51°24' E 002°34'0 0.0
2015-Jul-28 12:32N 51°24' E 002°34'0 0.0
2015-Jul-28 11:32N 51°24' E 002°34'0 0.0
2015-Jul-28 10:32N 51°24' E 002°34'0 0.4
2015-Jul-28 09:34N 51°24' E 002°34'1413.9
2015-Jul-28 08:33N 51°18' E 002°14'1717.4
2015-Jul-28 07:33N 51°09' E 001°50'1716.9
2015-Jul-28 06:33N 50°57' E 001°31'3616.1
2015-Jul-28 04:20N 50°29' E 000°58'76516.7
2015-Jul-26 06:31N 40°13' W 009°50'2119.8
2015-Jul-26 05:27N 39°52' W 009°51'2019.3
2015-Jul-26 04:24N 39°32' W 009°52'1619.0
2015-Jul-26 03:33N 39°16' W 009°53'1919.2
2015-Jul-26 02:33N 38°57' W 009°52'1918.9
2015-Jul-26 01:33N 38°38' W 009°51'1918.7
2015-Jul-26 00:33N 38°19' W 009°51'1818.4
2015-Jul-25 23:33N 38°01' W 009°52'1818.0
2015-Jul-25 22:33N 37°43' W 009°52'1818.4
2015-Jul-25 21:33N 37°24' W 009°53'1818.3
2015-Jul-25 20:33N 37°06' W 009°54'1918.5
2015-Jul-25 19:33N 36°48' W 009°54'1818.3
2015-Jul-25 18:33N 36°29' W 009°55'1918.5
2015-Jul-25 17:33N 36°11' W 009°56'1818.5
2015-Jul-25 16:33N 35°52' W 009°57'1918.5
2015-Jul-25 15:33N 35°34' W 009°57'1918.2
2015-Jul-25 14:32N 35°15' W 009°58'2018.2
2015-Jul-25 13:25N 34°55' W 009°59'1618.5
2015-Jul-25 12:33N 34°39' W 009°59'2118.5
2015-Jul-25 11:26N 34°18' W 010°01'1618.3
2015-Jul-25 10:32N 34°02' W 010°01'1919.4
2015-Jul-25 09:33N 33°43' W 010°02'19812.0
2015-Jul-24 17:03N 30°26' W 009°39'0 0.0
2015-Jul-24 12:21N 30°26' W 009°39'0 0.0
2015-Jul-24 11:09N 30°26' W 009°39'0 0.0
2015-Jul-24 10:21N 30°26' W 009°39'0 0.0
2015-Jul-24 09:21N 30°26' W 009°39'0 0.0
2015-Jul-24 08:24N 30°26' W 009°39'0 0.0
2015-Jul-24 06:27N 30°26' W 009°39'0 0.0
2015-Jul-24 04:10N 30°26' W 009°39'0 0.0
2015-Jul-24 03:25N 30°26' W 009°39'0 0.0
2015-Jul-24 01:19N 30°26' W 009°39'0 0.0
2015-Jul-24 00:26N 30°26' W 009°39'0 0.0
2015-Jul-23 21:17N 30°26' W 009°39'0 0.0
2015-Jul-23 20:32N 30°26' W 009°39'0 0.0
2015-Jul-23 19:32N 30°26' W 009°39'0 0.0
2015-Jul-23 16:32N 30°26' W 009°39'0 0.0
2015-Jul-23 14:23N 30°26' W 009°39'0 0.0
2015-Jul-23 09:26N 30°26' W 009°39'0 0.0
2015-Jul-23 07:03N 30°26' W 009°39'1 1.5
2015-Jul-23 06:26N 30°25' W 009°38'2 0.5
2015-Jul-23 01:31N 30°24' W 009°41'0 0.0
2015-Jul-22 20:19N 30°24' W 009°41'0 0.0
2015-Jul-22 19:31N 30°24' W 009°41'0 0.0
2015-Jul-22 18:19N 30°24' W 009°41'0 0.0
2015-Jul-22 17:22N 30°24' W 009°41'0 0.0
2015-Jul-22 16:25N 30°24' W 009°41'0 0.0
2015-Jul-22 15:22N 30°24' W 009°41'0 0.0
2015-Jul-22 11:31N 30°24' W 009°41'0 0.0
2015-Jul-22 07:28N 30°24' W 009°41'0 0.0
2015-Jul-22 06:04N 30°24' W 009°41'0 0.0
2015-Jul-22 05:19N 30°24' W 009°41'0 0.0
2015-Jul-22 04:19N 30°24' W 009°41'0 0.0
2015-Jul-22 02:25N 30°24' W 009°41'14 1.4
2015-Jul-21 16:22N 30°19' W 009°56'2916.2
2015-Jul-21 14:33N 30°13' W 010°30'1615.9
2015-Jul-21 13:33N 30°09' W 010°48'5115.5
2015-Jul-21 10:14N 29°60' W 011°46'1015.0
2015-Jul-21 09:33N 29°57' W 011°58'1414.5
2015-Jul-21 08:34N 29°54' W 012°14'14214.1
2015-Jul-20 22:32N 28°47' W 014°37'1515.3
2015-Jul-20 21:33N 28°36' W 014°49'1515.2
2015-Jul-20 20:33N 28°26' W 015°01'1515.0
2015-Jul-20 19:33N 28°15' W 015°14'1312.6
2015-Jul-20 18:33N 28°07' W 015°25'1 0.6
2015-Jul-20 17:32N 28°08' W 015°25'0 0.0
2015-Jul-20 16:32N 28°08' W 015°25'0 0.0
2015-Jul-20 15:32N 28°08' W 015°25'0 0.0
2015-Jul-20 14:32N 28°08' W 015°25'0 0.0
2015-Jul-20 13:23N 28°08' W 015°25'0 0.0
2015-Jul-20 12:26N 28°08' W 015°25'0 0.0
2015-Jul-20 11:23N 28°08' W 015°25'0 0.0
2015-Jul-20 10:26N 28°08' W 015°25'0 0.0
2015-Jul-20 09:26N 28°08' W 015°25'  

Dump ship's entire track history